Atlanticbeach, North Carolina
Current Conditions -  °F | °C
As of 3:58 AM on Monday 24 Nov 2014 (Local Time) from KMRH Reporting Station
Haze Haze  
Wind Chill: 66°   Ceiling: 1300
Heat Index: 66°   Visibility: 6mi
Dew Point: 65°   Wind: 12mph
Humidity: 96%   Direction: 210°SSW
Pressure: 29.85"   Gusts: NA
Location:  34.6984°N, 76.7775°W
Report Text: KMRH 240858Z AUTO 21010KT 6SM BR OVC013 19/18 A2985 RMK AO2 SLP108 60017 T01890183 53001 TSNO
Loading
Personal Weather Stations






























Interactive Weather Map New forecast layout! Learn more

10-Day Weather Forecast

Advertisements
Track Severe Weather on mobile